sensor_id;sensor_type;location;lat;lon;timestamp;P1;durP1;ratioP1;P2;durP2;ratioP2
36241;SDS011;22283;42.748;12.732;2022-12-17T00:09:26;4.75;;;1.67;;
36241;SDS011;22283;42.748;12.732;2022-12-17T00:14:45;5.40;;;1.58;;
36241;SDS011;22283;42.748;12.732;2022-12-17T00:20:04;6.97;;;1.80;;
36241;SDS011;22283;42.748;12.732;2022-12-17T00:25:24;5.57;;;2.17;;
36241;SDS011;22283;42.748;12.732;2022-12-17T00:30:43;4.47;;;2.10;;
36241;SDS011;22283;42.748;12.732;2022-12-17T00:36:08;7.95;;;2.33;;
36241;SDS011;22283;42.748;12.732;2022-12-17T00:41:28;8.20;;;2.17;;
36241;SDS011;22283;42.748;12.732;2022-12-17T00:46:47;7.07;;;2.00;;
36241;SDS011;22283;42.748;12.732;2022-12-17T00:52:06;6.15;;;2.10;;
36241;SDS011;22283;42.748;12.732;2022-12-17T00:57:26;6.10;;;2.50;;
36241;SDS011;22283;42.748;12.732;2022-12-17T01:02:48;8.00;;;2.37;;
36241;SDS011;22283;42.748;12.732;2022-12-17T01:08:08;11.90;;;2.75;;
36241;SDS011;22283;42.748;12.732;2022-12-17T01:13:28;8.90;;;2.20;;
36241;SDS011;22283;42.748;12.732;2022-12-17T01:18:47;10.13;;;2.50;;
36241;SDS011;22283;42.748;12.732;2022-12-17T01:24:08;7.60;;;2.35;;
36241;SDS011;22283;42.748;12.732;2022-12-17T01:29:27;6.13;;;2.13;;
36241;SDS011;22283;42.748;12.732;2022-12-17T01:34:46;6.10;;;2.30;;
36241;SDS011;22283;42.748;12.732;2022-12-17T01:40:06;4.70;;;1.77;;
36241;SDS011;22283;42.748;12.732;2022-12-17T01:45:27;6.25;;;2.13;;
36241;SDS011;22283;42.748;12.732;2022-12-17T01:50:54;8.70;;;2.13;;
36241;SDS011;22283;42.748;12.732;2022-12-17T01:56:15;9.93;;;2.00;;
36241;SDS011;22283;42.748;12.732;2022-12-17T02:01:35;8.25;;;2.33;;
36241;SDS011;22283;42.748;12.732;2022-12-17T02:17:51;11.70;;;2.55;;
36241;SDS011;22283;42.748;12.732;2022-12-17T02:28:49;8.18;;;2.50;;
36241;SDS011;22283;42.748;12.732;2022-12-17T02:34:09;9.50;;;2.00;;
36241;SDS011;22283;42.748;12.732;2022-12-17T02:39:28;7.45;;;2.60;;
36241;SDS011;22283;42.748;12.732;2022-12-17T02:44:48;5.60;;;1.88;;
36241;SDS011;22283;42.748;12.732;2022-12-17T02:50:08;6.18;;;2.50;;
36241;SDS011;22283;42.748;12.732;2022-12-17T02:55:28;5.75;;;2.45;;
36241;SDS011;22283;42.748;12.732;2022-12-17T03:00:47;8.43;;;2.08;;
36241;SDS011;22283;42.748;12.732;2022-12-17T03:06:09;5.30;;;2.20;;
36241;SDS011;22283;42.748;12.732;2022-12-17T03:11:28;6.90;;;2.38;;
36241;SDS011;22283;42.748;12.732;2022-12-17T03:16:49;9.10;;;2.03;;
36241;SDS011;22283;42.748;12.732;2022-12-17T03:22:08;6.45;;;2.17;;
36241;SDS011;22283;42.748;12.732;2022-12-17T03:33:00;8.05;;;1.63;;
36241;SDS011;22283;42.748;12.732;2022-12-17T03:38:19;5.78;;;1.80;;
36241;SDS011;22283;42.748;12.732;2022-12-17T03:43:38;4.35;;;1.75;;
36241;SDS011;22283;42.748;12.732;2022-12-17T03:48:57;5.47;;;1.92;;
36241;SDS011;22283;42.748;12.732;2022-12-17T03:54:16;4.38;;;2.10;;
36241;SDS011;22283;42.748;12.732;2022-12-17T03:59:35;6.50;;;2.08;;
36241;SDS011;22283;42.748;12.732;2022-12-17T04:04:54;6.03;;;2.38;;
36241;SDS011;22283;42.748;12.732;2022-12-17T04:10:14;8.77;;;2.42;;
36241;SDS011;22283;42.748;12.732;2022-12-17T04:15:33;5.72;;;1.83;;
36241;SDS011;22283;42.748;12.732;2022-12-17T04:20:53;5.78;;;2.22;;
36241;SDS011;22283;42.748;12.732;2022-12-17T04:26:12;7.43;;;2.50;;
36241;SDS011;22283;42.748;12.732;2022-12-17T04:31:31;11.57;;;3.00;;
36241;SDS011;22283;42.748;12.732;2022-12-17T04:37:10;9.38;;;2.55;;
36241;SDS011;22283;42.748;12.732;2022-12-17T04:42:30;7.07;;;2.05;;
36241;SDS011;22283;42.748;12.732;2022-12-17T04:47:49;6.18;;;2.25;;
36241;SDS011;22283;42.748;12.732;2022-12-17T04:53:08;5.95;;;1.83;;
36241;SDS011;22283;42.748;12.732;2022-12-17T04:58:28;8.95;;;2.10;;
36241;SDS011;22283;42.748;12.732;2022-12-17T05:03:47;5.63;;;2.10;;
36241;SDS011;22283;42.748;12.732;2022-12-17T05:09:06;5.57;;;2.38;;
36241;SDS011;22283;42.748;12.732;2022-12-17T05:14:26;7.32;;;1.95;;
36241;SDS011;22283;42.748;12.732;2022-12-17T05:19:45;6.53;;;2.05;;
36241;SDS011;22283;42.748;12.732;2022-12-17T05:25:04;6.32;;;1.50;;
36241;SDS011;22283;42.748;12.732;2022-12-17T05:30:24;8.18;;;1.90;;
36241;SDS011;22283;42.748;12.732;2022-12-17T05:35:43;11.75;;;2.15;;
36241;SDS011;22283;42.748;12.732;2022-12-17T05:41:02;9.70;;;2.00;;
36241;SDS011;22283;42.748;12.732;2022-12-17T05:46:21;5.82;;;1.65;;
36241;SDS011;22283;42.748;12.732;2022-12-17T05:51:40;7.43;;;1.80;;
36241;SDS011;22283;42.748;12.732;2022-12-17T05:56:59;5.60;;;1.80;;
36241;SDS011;22283;42.748;12.732;2022-12-17T06:02:18;7.25;;;1.88;;
36241;SDS011;22283;42.748;12.732;2022-12-17T06:07:37;8.93;;;3.08;;
36241;SDS011;22283;42.748;12.732;2022-12-17T06:12:56;6.18;;;2.80;;
36241;SDS011;22283;42.748;12.732;2022-12-17T06:18:16;10.10;;;1.95;;
36241;SDS011;22283;42.748;12.732;2022-12-17T06:23:35;6.32;;;1.80;;
36241;SDS011;22283;42.748;12.732;2022-12-17T06:28:54;6.68;;;2.22;;
36241;SDS011;22283;42.748;12.732;2022-12-17T06:34:13;5.80;;;1.80;;
36241;SDS011;22283;42.748;12.732;2022-12-17T06:39:32;6.30;;;1.80;;
36241;SDS011;22283;42.748;12.732;2022-12-17T06:44:51;5.32;;;1.90;;
36241;SDS011;22283;42.748;12.732;2022-12-17T06:50:10;5.60;;;1.90;;
36241;SDS011;22283;42.748;12.732;2022-12-17T06:55:29;7.03;;;2.63;;
36241;SDS011;22283;42.748;12.732;2022-12-17T07:00:49;8.43;;;2.53;;
36241;SDS011;22283;42.748;12.732;2022-12-17T07:06:08;5.43;;;2.22;;
36241;SDS011;22283;42.748;12.732;2022-12-17T07:11:28;9.60;;;3.25;;
36241;SDS011;22283;42.748;12.732;2022-12-17T07:16:47;13.63;;;5.45;;
36241;SDS011;22283;42.748;12.732;2022-12-17T07:22:06;9.90;;;4.22;;
36241;SDS011;22283;42.748;12.732;2022-12-17T07:27:25;8.50;;;3.90;;
36241;SDS011;22283;42.748;12.732;2022-12-17T07:32:44;9.07;;;3.85;;
36241;SDS011;22283;42.748;12.732;2022-12-17T07:38:03;11.25;;;6.13;;
36241;SDS011;22283;42.748;12.732;2022-12-17T07:43:23;8.82;;;4.85;;
36241;SDS011;22283;42.748;12.732;2022-12-17T07:48:42;9.93;;;5.28;;
36241;SDS011;22283;42.748;12.732;2022-12-17T07:54:00;18.02;;;8.93;;
36241;SDS011;22283;42.748;12.732;2022-12-17T07:59:20;17.45;;;8.02;;
36241;SDS011;22283;42.748;12.732;2022-12-17T08:04:39;11.25;;;7.03;;
36241;SDS011;22283;42.748;12.732;2022-12-17T08:09:58;16.42;;;6.13;;
36241;SDS011;22283;42.748;12.732;2022-12-17T08:15:17;12.25;;;5.15;;
36241;SDS011;22283;42.748;12.732;2022-12-17T08:20:36;13.45;;;6.68;;
36241;SDS011;22283;42.748;12.732;2022-12-17T08:25:55;16.23;;;9.15;;
36241;SDS011;22283;42.748;12.732;2022-12-17T08:31:14;19.98;;;10.10;;
36241;SDS011;22283;42.748;12.732;2022-12-17T08:36:33;13.60;;;5.65;;
36241;SDS011;22283;42.748;12.732;2022-12-17T08:41:53;8.05;;;3.40;;
36241;SDS011;22283;42.748;12.732;2022-12-17T08:47:12;11.32;;;4.53;;
36241;SDS011;22283;42.748;12.732;2022-12-17T08:52:31;7.25;;;3.88;;
36241;SDS011;22283;42.748;12.732;2022-12-17T08:57:57;20.27;;;11.95;;
36241;SDS011;22283;42.748;12.732;2022-12-17T09:03:16;12.52;;;6.45;;
36241;SDS011;22283;42.748;12.732;2022-12-17T09:08:36;15.13;;;8.25;;
36241;SDS011;22283;42.748;12.732;2022-12-17T09:13:55;10.98;;;4.88;;
36241;SDS011;22283;42.748;12.732;2022-12-17T09:19:18;10.45;;;4.72;;
36241;SDS011;22283;42.748;12.732;2022-12-17T09:24:41;6.28;;;3.50;;
36241;SDS011;22283;42.748;12.732;2022-12-17T09:30:00;8.32;;;3.20;;
36241;SDS011;22283;42.748;12.732;2022-12-17T09:35:20;4.85;;;1.92;;
36241;SDS011;22283;42.748;12.732;2022-12-17T09:40:39;8.82;;;2.22;;
36241;SDS011;22283;42.748;12.732;2022-12-17T09:51:34;9.18;;;2.72;;
36241;SDS011;22283;42.748;12.732;2022-12-17T09:56:55;7.43;;;1.77;;
36241;SDS011;22283;42.748;12.732;2022-12-17T10:02:18;14.70;;;2.13;;
36241;SDS011;22283;42.748;12.732;2022-12-17T10:07:40;14.00;;;5.30;;
36241;SDS011;22283;42.748;12.732;2022-12-17T10:12:59;8.13;;;2.42;;
36241;SDS011;22283;42.748;12.732;2022-12-17T10:18:19;9.88;;;2.25;;
36241;SDS011;22283;42.748;12.732;2022-12-17T10:23:38;5.78;;;1.25;;
36241;SDS011;22283;42.748;12.732;2022-12-17T10:29:02;5.75;;;1.42;;
36241;SDS011;22283;42.748;12.732;2022-12-17T10:34:34;11.15;;;2.38;;
36241;SDS011;22283;42.748;12.732;2022-12-17T10:39:55;10.65;;;1.80;;
36241;SDS011;22283;42.748;12.732;2022-12-17T10:45:19;14.32;;;2.22;;
36241;SDS011;22283;42.748;12.732;2022-12-17T10:50:47;9.55;;;2.22;;
36241;SDS011;22283;42.748;12.732;2022-12-17T10:56:06;14.68;;;2.35;;
36241;SDS011;22283;42.748;12.732;2022-12-17T11:01:38;6.30;;;1.80;;
36241;SDS011;22283;42.748;12.732;2022-12-17T11:06:59;6.28;;;1.73;;
36241;SDS011;22283;42.748;12.732;2022-12-17T11:12:18;7.75;;;2.10;;
36241;SDS011;22283;42.748;12.732;2022-12-17T11:17:54;6.47;;;1.90;;
36241;SDS011;22283;42.748;12.732;2022-12-17T11:23:17;5.85;;;1.50;;
36241;SDS011;22283;42.748;12.732;2022-12-17T11:28:38;8.15;;;1.75;;
36241;SDS011;22283;42.748;12.732;2022-12-17T11:34:23;3.67;;;1.60;;
36241;SDS011;22283;42.748;12.732;2022-12-17T11:39:46;8.13;;;1.98;;
36241;SDS011;22283;42.748;12.732;2022-12-17T11:45:33;8.90;;;3.15;;
36241;SDS011;22283;42.748;12.732;2022-12-17T11:51:00;8.93;;;1.92;;
36241;SDS011;22283;42.748;12.732;2022-12-17T11:56:51;11.15;;;2.65;;
36241;SDS011;22283;42.748;12.732;2022-12-17T12:13:26;5.78;;;1.23;;
36241;SDS011;22283;42.748;12.732;2022-12-17T12:19:05;12.05;;;1.92;;
36241;SDS011;22283;42.748;12.732;2022-12-17T12:30:14;9.68;;;3.17;;
36241;SDS011;22283;42.748;12.732;2022-12-17T12:35:35;7.20;;;2.35;;
36241;SDS011;22283;42.748;12.732;2022-12-17T12:41:05;6.47;;;1.77;;
36241;SDS011;22283;42.748;12.732;2022-12-17T12:46:45;8.77;;;3.72;;
36241;SDS011;22283;42.748;12.732;2022-12-17T12:52:11;14.60;;;4.88;;
36241;SDS011;22283;42.748;12.732;2022-12-17T13:14:32;4.30;;;1.85;;
36241;SDS011;22283;42.748;12.732;2022-12-17T13:19:43;12.10;;;5.43;;
36241;SDS011;22283;42.748;12.732;2022-12-17T13:25:15;7.65;;;3.60;;
36241;SDS011;22283;42.748;12.732;2022-12-17T13:45:42;11.25;;;2.15;;
36241;SDS011;22283;42.748;12.732;2022-12-17T13:50:51;8.33;;;2.40;;
36241;SDS011;22283;42.748;12.732;2022-12-17T13:56:03;10.43;;;2.95;;
36241;SDS011;22283;42.748;12.732;2022-12-17T14:01:08;4.93;;;1.60;;
36241;SDS011;22283;42.748;12.732;2022-12-17T14:06:11;12.57;;;1.85;;
36241;SDS011;22283;42.748;12.732;2022-12-17T14:11:12;6.17;;;2.17;;
36241;SDS011;22283;42.748;12.732;2022-12-17T14:16:31;7.68;;;2.10;;
36241;SDS011;22283;42.748;12.732;2022-12-17T14:21:32;7.65;;;2.17;;
36241;SDS011;22283;42.748;12.732;2022-12-17T14:26:33;10.83;;;1.93;;
36241;SDS011;22283;42.748;12.732;2022-12-17T14:31:34;9.43;;;1.90;;
36241;SDS011;22283;42.748;12.732;2022-12-17T14:36:36;10.85;;;3.58;;
36241;SDS011;22283;42.748;12.732;2022-12-17T14:41:41;5.45;;;2.47;;
36241;SDS011;22283;42.748;12.732;2022-12-17T14:52:19;7.47;;;1.73;;
36241;SDS011;22283;42.748;12.732;2022-12-17T14:57:25;5.43;;;1.67;;
36241;SDS011;22283;42.748;12.732;2022-12-17T15:02:26;9.83;;;4.13;;
36241;SDS011;22283;42.748;12.732;2022-12-17T15:07:30;11.95;;;2.42;;
36241;SDS011;22283;42.748;12.732;2022-12-17T15:17:31;10.95;;;5.32;;
36241;SDS011;22283;42.748;12.732;2022-12-17T15:22:39;7.30;;;4.90;;
36241;SDS011;22283;42.748;12.732;2022-12-17T15:27:40;16.88;;;4.30;;
36241;SDS011;22283;42.748;12.732;2022-12-17T15:32:41;7.13;;;2.20;;
36241;SDS011;22283;42.748;12.732;2022-12-17T15:37:41;16.30;;;4.67;;
36241;SDS011;22283;42.748;12.732;2022-12-17T15:42:43;17.63;;;6.13;;
36241;SDS011;22283;42.748;12.732;2022-12-17T15:48:03;10.75;;;6.15;;
36241;SDS011;22283;42.748;12.732;2022-12-17T15:53:05;15.48;;;6.45;;
36241;SDS011;22283;42.748;12.732;2022-12-17T15:58:07;15.80;;;4.88;;
36241;SDS011;22283;42.748;12.732;2022-12-17T16:03:11;22.20;;;10.98;;
36241;SDS011;22283;42.748;12.732;2022-12-17T16:08:12;19.27;;;9.33;;
36241;SDS011;22283;42.748;12.732;2022-12-17T16:13:14;29.58;;;15.25;;
36241;SDS011;22283;42.748;12.732;2022-12-17T16:18:16;21.85;;;12.32;;
36241;SDS011;22283;42.748;12.732;2022-12-17T16:23:18;25.77;;;14.77;;
36241;SDS011;22283;42.748;12.732;2022-12-17T16:28:20;31.33;;;14.45;;
36241;SDS011;22283;42.748;12.732;2022-12-17T16:33:21;13.07;;;6.38;;
36241;SDS011;22283;42.748;12.732;2022-12-17T16:38:23;13.35;;;6.07;;
36241;SDS011;22283;42.748;12.732;2022-12-17T16:43:25;15.88;;;9.18;;
36241;SDS011;22283;42.748;12.732;2022-12-17T16:48:28;21.00;;;12.35;;
36241;SDS011;22283;42.748;12.732;2022-12-17T16:53:29;21.70;;;12.47;;
36241;SDS011;22283;42.748;12.732;2022-12-17T16:58:32;26.25;;;14.77;;
36241;SDS011;22283;42.748;12.732;2022-12-17T17:03:37;22.10;;;14.10;;
36241;SDS011;22283;42.748;12.732;2022-12-17T17:08:41;23.52;;;15.57;;
36241;SDS011;22283;42.748;12.732;2022-12-17T17:13:43;20.13;;;9.82;;
36241;SDS011;22283;42.748;12.732;2022-12-17T17:18:44;27.95;;;14.10;;
36241;SDS011;22283;42.748;12.732;2022-12-17T17:23:45;31.07;;;23.03;;
36241;SDS011;22283;42.748;12.732;2022-12-17T17:28:47;32.60;;;19.08;;
36241;SDS011;22283;42.748;12.732;2022-12-17T17:33:48;33.25;;;21.92;;
36241;SDS011;22283;42.748;12.732;2022-12-17T17:38:51;36.30;;;18.90;;
36241;SDS011;22283;42.748;12.732;2022-12-17T17:43:53;22.95;;;12.40;;
36241;SDS011;22283;42.748;12.732;2022-12-17T17:49:02;28.80;;;15.32;;
36241;SDS011;22283;42.748;12.732;2022-12-17T17:54:06;22.00;;;11.63;;
36241;SDS011;22283;42.748;12.732;2022-12-17T17:59:09;13.95;;;8.02;;
36241;SDS011;22283;42.748;12.732;2022-12-17T18:04:13;22.95;;;8.65;;
36241;SDS011;22283;42.748;12.732;2022-12-17T18:09:16;17.42;;;8.38;;
36241;SDS011;22283;42.748;12.732;2022-12-17T18:14:17;25.63;;;11.63;;
36241;SDS011;22283;42.748;12.732;2022-12-17T18:19:19;14.50;;;8.23;;
36241;SDS011;22283;42.748;12.732;2022-12-17T18:24:22;15.38;;;5.22;;
36241;SDS011;22283;42.748;12.732;2022-12-17T18:29:23;13.50;;;5.47;;
36241;SDS011;22283;42.748;12.732;2022-12-17T18:34:26;10.60;;;6.55;;
36241;SDS011;22283;42.748;12.732;2022-12-17T18:39:26;18.77;;;9.10;;
36241;SDS011;22283;42.748;12.732;2022-12-17T18:44:28;20.67;;;11.20;;
36241;SDS011;22283;42.748;12.732;2022-12-17T18:54:30;32.08;;;10.88;;
36241;SDS011;22283;42.748;12.732;2022-12-17T18:59:30;24.47;;;12.90;;
36241;SDS011;22283;42.748;12.732;2022-12-17T19:04:31;40.13;;;20.20;;
36241;SDS011;22283;42.748;12.732;2022-12-17T19:09:32;27.43;;;16.60;;
36241;SDS011;22283;42.748;12.732;2022-12-17T19:14:35;28.88;;;16.63;;
36241;SDS011;22283;42.748;12.732;2022-12-17T19:19:35;24.73;;;11.30;;
36241;SDS011;22283;42.748;12.732;2022-12-17T19:24:36;13.93;;;7.93;;
36241;SDS011;22283;42.748;12.732;2022-12-17T19:29:36;21.27;;;10.90;;
36241;SDS011;22283;42.748;12.732;2022-12-17T19:34:37;23.87;;;13.80;;
36241;SDS011;22283;42.748;12.732;2022-12-17T19:39:37;17.27;;;9.60;;
36241;SDS011;22283;42.748;12.732;2022-12-17T19:44:38;9.20;;;3.70;;
36241;SDS011;22283;42.748;12.732;2022-12-17T19:49:39;5.53;;;2.47;;
36241;SDS011;22283;42.748;12.732;2022-12-17T19:54:39;13.40;;;3.00;;
36241;SDS011;22283;42.748;12.732;2022-12-17T19:59:40;10.77;;;5.97;;
36241;SDS011;22283;42.748;12.732;2022-12-17T20:04:41;18.40;;;6.03;;
36241;SDS011;22283;42.748;12.732;2022-12-17T20:09:41;21.93;;;13.10;;
36241;SDS011;22283;42.748;12.732;2022-12-17T20:14:45;21.83;;;15.45;;
36241;SDS011;22283;42.748;12.732;2022-12-17T20:19:46;30.73;;;19.87;;
36241;SDS011;22283;42.748;12.732;2022-12-17T20:24:48;33.55;;;18.85;;
36241;SDS011;22283;42.748;12.732;2022-12-17T20:29:49;26.17;;;15.93;;
36241;SDS011;22283;42.748;12.732;2022-12-17T20:34:49;17.47;;;12.73;;
36241;SDS011;22283;42.748;12.732;2022-12-17T20:39:50;23.17;;;14.20;;
36241;SDS011;22283;42.748;12.732;2022-12-17T20:44:51;22.63;;;14.07;;
36241;SDS011;22283;42.748;12.732;2022-12-17T20:49:51;28.67;;;17.87;;
36241;SDS011;22283;42.748;12.732;2022-12-17T20:54:52;37.47;;;19.80;;
36241;SDS011;22283;42.748;12.732;2022-12-17T20:59:53;27.27;;;16.57;;
36241;SDS011;22283;42.748;12.732;2022-12-17T21:04:53;20.53;;;14.80;;
36241;SDS011;22283;42.748;12.732;2022-12-17T21:09:54;18.63;;;12.07;;
36241;SDS011;22283;42.748;12.732;2022-12-17T21:14:55;21.73;;;11.30;;
36241;SDS011;22283;42.748;12.732;2022-12-17T21:19:55;18.03;;;10.10;;
36241;SDS011;22283;42.748;12.732;2022-12-17T21:24:56;17.47;;;9.60;;
36241;SDS011;22283;42.748;12.732;2022-12-17T21:29:56;20.40;;;11.50;;
36241;SDS011;22283;42.748;12.732;2022-12-17T21:34:57;16.70;;;10.27;;
36241;SDS011;22283;42.748;12.732;2022-12-17T21:39:58;30.20;;;18.07;;
36241;SDS011;22283;42.748;12.732;2022-12-17T21:44:58;22.93;;;15.40;;
36241;SDS011;22283;42.748;12.732;2022-12-17T21:49:59;19.03;;;11.83;;
36241;SDS011;22283;42.748;12.732;2022-12-17T21:54:59;14.63;;;7.73;;
36241;SDS011;22283;42.748;12.732;2022-12-17T22:00:00;15.93;;;8.37;;
36241;SDS011;22283;42.748;12.732;2022-12-17T22:05:01;10.80;;;7.27;;
36241;SDS011;22283;42.748;12.732;2022-12-17T22:10:01;18.53;;;9.13;;
36241;SDS011;22283;42.748;12.732;2022-12-17T22:15:02;23.00;;;13.37;;
36241;SDS011;22283;42.748;12.732;2022-12-17T22:20:03;20.65;;;12.00;;
36241;SDS011;22283;42.748;12.732;2022-12-17T22:25:05;27.30;;;12.93;;
36241;SDS011;22283;42.748;12.732;2022-12-17T22:30:06;30.70;;;18.67;;
36241;SDS011;22283;42.748;12.732;2022-12-17T22:35:33;35.65;;;23.42;;
36241;SDS011;22283;42.748;12.732;2022-12-17T22:40:36;41.20;;;28.05;;
36241;SDS011;22283;42.748;12.732;2022-12-17T22:50:38;36.45;;;21.80;;
36241;SDS011;22283;42.748;12.732;2022-12-17T22:55:40;42.30;;;17.80;;
36241;SDS011;22283;42.748;12.732;2022-12-17T23:00:40;31.80;;;15.20;;
36241;SDS011;22283;42.748;12.732;2022-12-17T23:05:41;20.73;;;13.60;;
36241;SDS011;22283;42.748;12.732;2022-12-17T23:10:41;19.90;;;12.77;;
36241;SDS011;22283;42.748;12.732;2022-12-17T23:15:42;20.03;;;12.13;;
36241;SDS011;22283;42.748;12.732;2022-12-17T23:20:43;35.77;;;19.20;;
36241;SDS011;22283;42.748;12.732;2022-12-17T23:25:43;30.47;;;16.93;;
36241;SDS011;22283;42.748;12.732;2022-12-17T23:30:44;16.03;;;10.37;;
36241;SDS011;22283;42.748;12.732;2022-12-17T23:35:45;14.20;;;8.93;;
36241;SDS011;22283;42.748;12.732;2022-12-17T23:40:46;41.03;;;22.37;;
36241;SDS011;22283;42.748;12.732;2022-12-17T23:45:46;25.93;;;14.93;;
36241;SDS011;22283;42.748;12.732;2022-12-17T23:50:47;31.07;;;15.03;;
36241;SDS011;22283;42.748;12.732;2022-12-17T23:55:47;19.50;;;11.10;;
